Data for 02/25/2009

Time Sea-Level Adjusted Pressure Absolute Pressure Temperature Relative Humidity Dew Point   
(mb) (inHg) (mb) (inHg) (C) (F) (%) (C) (F)
00:05 1014 29.94 843 24.89 4.5 40 33 -10.5 13
00:10 1014 29.94 843 24.89 4.7 40.5 32 -10.5 13.2
00:15 1014 29.94 843 24.89 4.7 40.5 32 -10.5 13.1
00:20 1014 29.94 843 24.89 4.7 40.4 32 -10.6 13
00:25 1014 29.94 843 24.89 4.2 39.6 40 -8.3 17.1
00:30 1014 29.94 843 24.89 3.1 37.5 41 -8.9 16
00:35 1014 29.94 843 24.89 2.9 37.2 43 -8.4 16.8
00:40 1014 29.94 843 24.89 2.4 36.3 46 -8.1 17.5
00:45 1014 29.94 843 24.89 2 35.6 46 -8.4 16.9
00:50 1014 29.94 843 24.89 1.7 35.1 44 -9.1 15.5
00:55 1014 29.94 843 24.89 2.2 36 41 -9.7 14.5
01:00 1014 29.94 843 24.89 3 37.4 37 -10.2 13.6
01:05 1014 29.94 843 24.89 3.7 38.6 35 -10.3 13.4
01:10 1014 29.94 843 24.89 3.8 38.9 35 -10.3 13.4
01:15 1014 29.94 843 24.89 3.9 38.9 34 -10.5 13.1
01:20 1014 29.94 843 24.89 3.8 38.8 35 -10.2 13.6
01:25 1014 29.94 843 24.89 3.6 38.5 35 -10.6 13
01:30 1014 29.94 843 24.89 3.6 38.4 37 -10 14
01:35 1013 29.91 843 24.89 3.3 38 36 -10.2 13.6
01:40 1013 29.91 843 24.89 3.2 37.7 38 -9.9 14.2
01:45 1013 29.91 843 24.89 3 37.4 39 -9.8 14.3
01:50 1013 29.91 843 24.89 3.1 37.5 37 -10.3 13.4
01:55 1013 29.91 843 24.89 3.1 37.5 40 -9.2 15.5
02:00 1013 29.91 843 24.89 2.2 35.9 44 -8.9 15.9
02:05 1013 29.91 843 24.89 1.7 35 47 -8.6 16.5
02:10 1013 29.91 843 24.89 1.2 34.2 48 -8.6 16.6
02:15 1013 29.91 843 24.89 1 33.8 48 -8.8 16.1
02:20 1013 29.91 843 24.89 1 33.9 47 -9 15.9
02:25 1013 29.91 842 24.86 1.1 34.1 47 -8.9 16
02:30 1013 29.91 842 24.86 1.3 34.4 44 -9.6 14.7
02:35 1013 29.91 842 24.86 2.9 37.3 36 -10.6 12.9
02:40 1013 29.91 842 24.86 3.5 38.3 35 -10.5 13
02:45 1013 29.91 842 24.86 3.6 38.5 35 -10.5 13.2
02:50 1013 29.91 842 24.86 3.6 38.5 36 -9.9 14.1
02:55 1013 29.91 842 24.86 2.8 37.1 39 -9.7 14.5
03:00 1013 29.91 842 24.86 2.6 36.6 41 -9.3 15.3
03:05 1013 29.91 842 24.86 2.3 36.1 39 -10.2 13.7
03:10 1013 29.91 842 24.86 2.6 36.7 36 -10.9 12.4
03:15 1013 29.91 842 24.86 3 37.5 36 -10.5 13.1
03:20 1013 29.91 842 24.86 3.1 37.5 34 -11.4 11.5
03:25 1013 29.91 842 24.86 3.5 38.3 33 -11.1 12
03:30 1013 29.91 842 24.86 3.6 38.6 33 -11.1 12.1
03:35 1013 29.91 842 24.86 3.6 38.5 33 -11.2 11.8
03:40 1013 29.91 842 24.86 3.9 39 34 -10.8 12.6
03:45 1013 29.91 842 24.86 3.6 38.5 33 -11.1 12.1
03:50 1013 29.91 842 24.86 3.6 38.6 35 -10.5 13.1
03:55 1013 29.91 842 24.86 3.5 38.4 35 -10.6 12.9
04:00 1013 29.91 842 24.86 3.5 38.4 34 -10.8 12.5
04:05 1013 29.91 842 24.86 3.7 38.6 34 -10.8 12.5
04:10 1013 29.91 842 24.86 3.6 38.6 34 -11 12.3
04:15 1013 29.91 842 24.86 3.6 38.6 35 -10.5 13
04:20 1013 29.91 842 24.86 3.5 38.3 35 -10.4 13.2
04:25 1013 29.91 842 24.86 3.2 37.7 37 -10.1 13.9
04:30 1013 29.91 842 24.86 3 37.5 36 -10.5 13
04:35 1013 29.91 842 24.86 2.8 37 38 -10.3 13.4
04:40 1013 29.91 842 24.86 2.5 36.5 38 -10.5 13.2
04:45 1013 29.91 842 24.86 2.7 36.9 36 -10.8 12.5
04:50 1013 29.91 842 24.86 3 37.3 36 -10.6 12.9
04:55 1013 29.91 842 24.86 2.9 37.2 36 -10.6 12.9
05:00 1013 29.91 842 24.86 2.5 36.5 40 -9.8 14.3
05:05 1013 29.91 842 24.86 1.8 35.2 42 -9.7 14.5
05:10 1013 29.91 842 24.86 1.4 34.5 41 -10.3 13.4
05:15 1013 29.91 842 24.86 1.7 35 39 -10.7 12.8
05:20 1013 29.91 842 24.86 1.8 35.3 43 -9.4 15
05:25 1013 29.91 842 24.86 1.4 34.5 42 -10.1 13.8
05:30 1013 29.91 842 24.86 1.3 34.3 43 -9.9 14.1
05:35 1013 29.91 842 24.86 1.5 34.6 42 -10.2 13.6
05:40 1013 29.91 842 24.86 1.6 34.8 44 -9.5 15
05:45 1013 29.91 842 24.86 0.9 33.6 48 -9 15.8
05:50 1013 29.91 842 24.86 0.5 32.9 48 -9.3 15.3
05:55 1013 29.91 842 24.86 0.6 33.1 46 -9.7 14.6
06:00 1013 29.91 842 24.86 0.8 33.5 47 -9.3 15.3
06:05 1013 29.91 842 24.86 0.5 33 47 -9.5 14.9
06:10 1013 29.91 842 24.86 0.6 33 46 -9.8 14.3
06:15 1013 29.91 842 24.86 0.6 33.2 47 -9.4 15.1
06:20 1013 29.91 842 24.86 0.5 32.8 47 -9.5 15
06:25 1012 29.88 842 24.86 0.9 33.6 44 -10.1 13.7
06:30 1013 29.91 842 24.86 1.1 34.1 44 -9.8 14.4
06:35 1013 29.91 842 24.86 1.3 34.4 43 -10 14
06:40 1012 29.88 842 24.86 1.4 34.4 44 -9.7 14.5
06:45 1012 29.88 841 24.83 1.2 34.2 43 -9.9 14.2
06:50 1012 29.88 841 24.83 1.2 34.1 45 -9.6 14.7
06:55 1012 29.88 841 24.83 1.1 34 44 -9.8 14.4
07:00 1012 29.88 841 24.83 1.2 34.1 44 -9.7 14.5
07:05 1012 29.88 841 24.83 1.1 34 45 -9.6 14.7
07:10 1012 29.88 841 24.83 1.4 34.4 44 -9.7 14.6
07:15 1012 29.88 841 24.83 1.4 34.5 44 -9.5 14.9
07:20 1012 29.88 841 24.83 1.4 34.5 44 -9.5 14.8
07:25 1012 29.88 841 24.83 1.4 34.5 45 -9.4 15.1
07:30 1012 29.88 841 24.83 1.4 34.5 44 -9.6 14.8
07:35 1012 29.88 841 24.83 1.5 34.7 44 -9.4 15.1
07:40 1012 29.88 841 24.83 1.3 34.3 45 -9.3 15.3
07:45 1012 29.88 841 24.83 1.3 34.4 45 -9.3 15.3
07:50 1012 29.88 841 24.83 1.3 34.4 45 -9.3 15.2
07:55 1012 29.88 841 24.83 1.4 34.5 45 -9.2 15.5
08:00 1012 29.88 841 24.83 1.3 34.4 46 -9.2 15.5
08:05 1012 29.88 841 24.83 1.3 34.4 45 -9.2 15.4
08:10 1012 29.88 841 24.83 1.4 34.5 45 -9.2 15.4
08:15 1012 29.88 841 24.83 1.5 34.7 44 -9.4 15.1
08:20 1012 29.88 841 24.83 1.7 35.1 44 -9.2 15.4
08:25 1012 29.88 841 24.83 1.8 35.2 44 -9.1 15.6
08:30 1012 29.88 841 24.83 1.8 35.3 45 -9 15.8
08:35 1012 29.88 841 24.83 1.9 35.5 45 -8.8 16.1
08:40 1012 29.88 841 24.83 2.1 35.8 44 -8.9 16
08:45 1012 29.88 841 24.83 2.3 36.1 44 -8.7 16.3
08:50 1012 29.88 841 24.83 2.3 36.1 44 -8.7 16.3
08:55 1012 29.88 841 24.83 2.4 36.3 44 -8.5 16.7
09:00 1012 29.88 841 24.83 2.5 36.5 44 -8.5 16.7
09:05 1012 29.88 841 24.83 2.5 36.5 44 -8.6 16.6
09:10 1012 29.88 841 24.83 2.6 36.7 44 -8.4 16.9
09:15 1012 29.88 841 24.83 2.8 37.1 44 -8.3 17.1
09:20 1012 29.88 841 24.83 2.9 37.1 44 -8.2 17.2
09:25 1012 29.88 841 24.83 2.9 37.2 45 -7.9 17.7
09:30 1012 29.88 841 24.83 2.9 37.2 45 -7.8 17.9
09:35 1012 29.88 841 24.83 3 37.3 45 -8 17.7
09:40 1012 29.88 841 24.83 3 37.4 45 -7.7 18.2
09:45 1012 29.88 841 24.83 3.1 37.6 46 -7.4 18.7
09:50 1012 29.88 841 24.83 3.5 38.2 45 -7.4 18.6
09:55 1012 29.88 841 24.83 3.8 38.8 44 -7.4 18.6
10:00 1012 29.88 841 24.83 3.9 39 44 -7.4 18.8
10:05 1012 29.88 841 24.83 4.1 39.4 43 -7.4 18.6
10:10 1012 29.88 841 24.83 4.5 40.1 42 -7.5 18.5
10:15 1011 29.85 841 24.83 4.8 40.6 40 -7.6 18.3
10:20 1011 29.85 841 24.83 4.7 40.4 40 -7.7 18.2
10:25 1011 29.85 841 24.83 4.9 40.9 39 -8 17.5
10:30 1011 29.85 841 24.83 5.3 41.5 37 -8.1 17.4
10:35 1011 29.85 840 24.81 5.1 41.2 38 -8.2 17.2
10:40 1011 29.85 840 24.81 5.2 41.4 37 -8.2 17.3
10:45 1011 29.85 840 24.81 5.3 41.6 37 -8.2 17.2
10:50 1011 29.85 840 24.81 5.7 42.2 36 -8.1 17.4
10:55 1011 29.85 840 24.81 6 42.7 35 -8.3 17.1
11:00 1011 29.85 840 24.81 6.3 43.4 35 -8.1 17.4
11:05 1011 29.85 840 24.81 6.4 43.4 33 -8.7 16.4
11:10 1011 29.85 840 24.81 6.6 43.8 33 -8.7 16.4
11:15 1011 29.85 840 24.81 6.9 44.4 34 -8 17.7
11:20 1011 29.85 840 24.81 6.8 44.3 33 -8.3 17
11:25 1011 29.85 840 24.81 6.6 43.8 34 -8.4 16.9
11:30 1011 29.85 840 24.81 6.9 44.4 31 -8.9 15.9
11:35 1011 29.85 840 24.81 7.1 44.7 31 -9.1 15.7
11:40 1011 29.85 840 24.81 7.1 44.7 38 -6.3 20.7
11:45 1011 29.85 840 24.81 6.3 43.4 40 -6.2 20.9
11:50 1011 29.85 840 24.81 6.4 43.4 38 -7 19.5
11:55 1011 29.85 840 24.81 6.5 43.6 35 -7.8 18
12:00 1011 29.85 840 24.81 7.1 44.8 33 -7.9 17.7
12:05 1011 29.85 840 24.81 7.6 45.7 32 -8.1 17.3
12:10 1011 29.85 840 24.81 7.9 46.1 37 -6.1 21.1
12:15 1010 29.83 840 24.81 7.3 45.1 37 -6.6 20.1
12:20 1010 29.83 840 24.81 7.3 45.2 32 -8.2 17.2
12:25 1010 29.83 839 24.78 7.5 45.4 30 -9.1 15.6
12:30 1010 29.83 839 24.78 7.1 44.7 31 -8.8 16.1
12:35 1010 29.83 839 24.78 7.1 44.8 32 -8.5 16.8
12:40 1010 29.83 839 24.78 7.3 45.1 33 -8.2 17.3
12:45 1010 29.83 839 24.78 7.3 45.1 33 -8 17.5
12:50 1010 29.83 839 24.78 7.2 44.9 33 -7.9 17.7
12:55 1010 29.83 839 24.78 7.5 45.6 33 -7.9 17.8
13:00 1010 29.83 839 24.78 7.8 46.1 32 -7.7 18.2
13:05 1010 29.83 839 24.78 7.7 45.9 32 -7.9 17.9
13:10 1010 29.83 839 24.78 7.3 45.1 34 -7.5 18.6
13:15 1010 29.83 839 24.78 6.9 44.4 35 -7.4 18.7
13:20 1010 29.83 839 24.78 7.3 45.2 35 -7.3 18.9
13:25 1010 29.83 839 24.78 7.8 46 34 -7.1 19.1
13:30 1009 29.8 839 24.78 7.9 46.3 33 -7.2 19
13:35 1009 29.8 839 24.78 8.3 46.9 34 -6.9 19.7
13:40 1009 29.8 839 24.78 8.2 46.8 34 -6.8 19.8
13:45 1009 29.8 839 24.78 7.9 46.3 37 -5.9 21.3
13:50 1009 29.8 838 24.75 7.7 45.9 36 -6.4 20.5
13:55 1009 29.8 838 24.75 8.2 46.7 35 -6.2 20.8
14:00 1009 29.8 838 24.75 8.2 46.7 35 -6.5 20.3
14:05 1009 29.8 838 24.75 7.8 46.1 35 -6.6 20.1
14:10 1009 29.8 838 24.75 8.2 46.7 34 -6.8 19.8
14:15 1009 29.8 838 24.75 8.5 47.2 34 -6.6 20.1
14:20 1009 29.8 838 24.75 8.5 47.3 32 -7.1 19.3
14:25 1009 29.8 838 24.75 8.5 47.4 33 -6.9 19.6
14:30 1009 29.8 838 24.75 8.5 47.3 31 -7.8 17.9
14:35 1009 29.8 838 24.75 8.1 46.6 31 -7.9 17.8
14:40 1009 29.8 838 24.75 8.1 46.6 31 -7.9 17.8
14:45 1009 29.8 838 24.75 8.2 46.8 35 -6.3 20.7
14:50 1009 29.8 838 24.75 7.9 46.2 36 -6.4 20.5
14:55 1009 29.8 838 24.75 7.6 45.8 36 -6.4 20.4
15:00 1009 29.8 838 24.75 7.4 45.2 37 -6.3 20.7
15:05 1009 29.8 838 24.75 7.2 44.9 39 -5.7 21.8
15:10 1009 29.8 838 24.75 7 44.6 41 -5.4 22.2
15:15 1009 29.8 838 24.75 7 44.7 40 -5.6 21.9
15:20 1009 29.8 838 24.75 7.1 44.8 41 -5.2 22.6
15:25 1009 29.8 838 24.75 6.9 44.3 36 -7.1 19.3
15:30 1009 29.8 838 24.75 6.9 44.5 37 -6.8 19.7
15:35 1009 29.8 838 24.75 7.1 44.7 39 -5.9 21.4
15:40 1009 29.8 838 24.75 7 44.5 39 -6 21.2
15:45 1009 29.8 838 24.75 7 44.6 39 -5.9 21.3
15:50 1009 29.8 838 24.75 7.3 45.1 39 -5.8 21.6
15:55 1009 29.8 838 24.75 7.4 45.3 38 -6.1 21.1
16:00 1009 29.8 838 24.75 7.4 45.3 38 -5.9 21.4
16:05 1009 29.8 838 24.75 7.2 44.9 40 -5.5 22
16:10 1009 29.8 838 24.75 6.7 44.1 44 -4.6 23.8
16:15 1009 29.8 838 24.75 6.3 43.4 47 -4.2 24.5
16:20 1009 29.8 838 24.75 6.2 43.1 48 -4 24.8
16:25 1009 29.8 838 24.75 6.1 43 47 -4.4 24.2
16:30 1009 29.8 838 24.75 6.2 43.2 47 -4.2 24.4
16:35 1009 29.8 838 24.75 6.1 43 48 -4 24.8
16:40 1009 29.8 838 24.75 6 42.8 49 -4 24.8
16:45 1009 29.8 838 24.75 6 42.8 49 -4 24.8
16:50 1009 29.8 838 24.75 6 42.8 49 -3.9 24.9
16:55 1009 29.8 838 24.75 5.9 42.7 48 -4.2 24.4
17:00 1009 29.8 838 24.75 6 42.8 48 -4.1 24.6
17:05 1009 29.8 838 24.75 6 42.9 49 -3.9 24.9
17:10 1009 29.8 838 24.75 6.1 42.9 49 -3.8 25.2
17:15 1009 29.8 838 24.75 5.8 42.5 49 -3.9 24.9
17:20 1009 29.8 838 24.75 6 42.8 48 -4.1 24.7
17:25 1009 29.8 838 24.75 6 42.8 48 -4.1 24.6
17:30 1009 29.8 838 24.75 6 42.8 52 -3.2 26.2
17:35 1009 29.8 839 24.78 5.2 41.4 55 -3 26.6
17:40 1009 29.8 839 24.78 4.9 40.8 56 -3.1 26.4
17:45 1009 29.8 839 24.78 4.7 40.5 60 -2.4 27.6
17:50 1010 29.83 839 24.78 4.5 40.2 62 -2 28.3
17:55 1010 29.83 839 24.78 4.2 39.5 65 -1.9 28.6
18:00 1010 29.83 839 24.78 3.9 39 67 -1.7 28.9
18:05 1010 29.83 839 24.78 3.8 38.8 67 -1.7 28.9
18:10 1010 29.83 839 24.78 3.6 38.5 69 -1.5 29.2
18:15 1010 29.83 839 24.78 3.5 38.4 70 -1.4 29.5
18:20 1010 29.83 839 24.78 3.4 38.2 72 -1.2 29.9
18:25 1010 29.83 839 24.78 3.3 38 73 -1.2 29.9
18:30 1010 29.83 839 24.78 3.2 37.7 73 -1.2 29.8
18:35 1010 29.83 839 24.78 3.2 37.8 73 -1.2 29.8
18:40 1010 29.83 839 24.78 3.3 37.9 72 -1.3 29.7
18:45 1010 29.83 839 24.78 3.3 38 72 -1.3 29.7
18:50 1010 29.83 839 24.78 3.3 37.9 72 -1.2 29.8
18:55 1010 29.83 839 24.78 3.2 37.7 72 -1.3 29.6
19:00 1010 29.83 839 24.78 3.2 37.7 73 -1.2 29.8
19:05 1010 29.83 839 24.78 3.1 37.5 74 -1.2 29.9
19:10 1010 29.83 839 24.78 3 37.4 75 -0.9 30.3
19:15 1010 29.83 840 24.81 2.9 37.3 77 -0.8 30.6
19:20 1010 29.83 840 24.81 2.8 37.1 79 -0.5 31.1
19:25 1010 29.83 840 24.81 2.6 36.6 81 -0.3 31.5
19:30 1011 29.85 840 24.81 2.5 36.4 85 0.1 32.2
19:35 1011 29.85 840 24.81 1.9 35.4 89 0.3 32.5
19:40 1011 29.85 840 24.81 1 33.8 94 0.1 32.2
19:45 1011 29.85 840 24.81 0.8 33.4 95 0 32.1
19:50 1011 29.85 840 24.81 0.9 33.7 93 -0.1 31.8
19:55 1011 29.85 840 24.81 0.6 33 93 -0.4 31.3
20:00 1011 29.85 840 24.81 0.3 32.5 94 -0.6 30.9
20:05 1011 29.85 840 24.81 0.3 32.5 94 -0.6 30.9
20:10 1011 29.85 840 24.81 0.3 32.6 94 -0.5 31
20:15 1011 29.85 840 24.81 0.3 32.6 93 -0.7 30.7
20:20 1011 29.85 840 24.81 0.3 32.5 91 -1 30.3
20:25 1011 29.85 840 24.81 0.2 32.4 91 -1.1 30
20:30 1011 29.85 840 24.81 0 32 92 -1.2 29.9
20:35 1011 29.85 840 24.81 -0.3 31.4 93 -1.3 29.6
20:40 1011 29.85 840 24.81 -0.5 31 94 -1.4 29.5
20:45 1011 29.85 840 24.81 -0.7 30.8 94 -1.4 29.4
20:50 1011 29.85 840 24.81 -0.8 30.6 95 -1.5 29.4
20:55 1011 29.85 840 24.81 -0.9 30.4 95 -1.6 29.2
21:00 1011 29.85 840 24.81 -0.9 30.4 95 -1.5 29.2
21:05 1011 29.85 840 24.81 -0.9 30.4 94 -1.7 29
21:10 1011 29.85 840 24.81 -1.1 30 94 -2 28.4
21:15 1011 29.85 841 24.83 -1.3 29.6 95 -2 28.3
21:20 1011 29.85 841 24.83 -1.3 29.6 94 -2.2 28
21:25 1012 29.88 841 24.83 -1.5 29.3 92 -2.6 27.3
21:30 1012 29.88 841 24.83 -1.6 29 91 -2.9 26.8
21:35 1011 29.85 841 24.83 -1.8 28.8 92 -2.9 26.9
21:40 1011 29.85 841 24.83 -1.9 28.6 91 -3.2 26.2
21:45 1012 29.88 841 24.83 -2 28.5 91 -3.3 26.1
21:50 1012 29.88 841 24.83 -2.1 28.2 89 -3.7 25.4
21:55 1012 29.88 841 24.83 -2.2 28 88 -3.9 25
22:00 1012 29.88 841 24.83 -2.3 27.9 88 -4 24.9
22:05 1011 29.85 841 24.83 -2.4 27.6 90 -3.8 25.1
22:10 1011 29.85 841 24.83 -2.6 27.3 90 -4.1 24.7
22:15 1011 29.85 841 24.83 -2.8 27 89 -4.3 24.2
22:20 1011 29.85 841 24.83 -3 26.6 90 -4.4 24.1
22:25 1011 29.85 841 24.83 -3.1 26.5 92 -4.2 24.4
22:30 1012 29.88 841 24.83 -3.2 26.2 92 -4.4 24.1
22:35 1012 29.88 841 24.83 -3.5 25.7 92 -4.6 23.7
22:40 1012 29.88 841 24.83 -3.6 25.5 91 -4.9 23.3
22:45 1011 29.85 841 24.83 -3.8 25.1 91 -5.1 22.8
22:50 1011 29.85 841 24.83 -3.9 25 90 -5.3 22.4
22:55 1012 29.88 841 24.83 -3.9 25 89 -5.5 22.1
23:00 1012 29.88 841 24.83 -4 24.8 88 -5.8 21.6
23:05 1012 29.88 841 24.83 -4.1 24.6 87 -6 21.2
23:10 1012 29.88 841 24.83 -4.1 24.6 86 -6.2 20.9
23:15 1012 29.88 841 24.83 -4.2 24.5 84 -6.5 20.3
23:20 1012 29.88 841 24.83 -4.3 24.2 84 -6.6 20.2
23:25 1012 29.88 841 24.83 -4.4 24.2 83 -6.8 19.8
23:30 1012 29.88 841 24.83 -4.4 24.1 83 -6.9 19.6
23:35 1012 29.88 841 24.83 -4.5 24 82 -7 19.4
23:40 1012 29.88 841 24.83 -4.5 23.9 83 -7.1 19.3
23:45 1012 29.88 841 24.83 -4.6 23.8 83 -7 19.4
23:50 1012 29.88 841 24.83 -4.6 23.7 83 -7 19.4
23:55 1012 29.88 841 24.83 -4.6 23.7 83 -7.1 19.2
24:00 1012 29.88 841 24.83 -4.6 23.8 82 -7.2 19